Terminal Aerodrome Forecast
Issued by NWS

Home | Current Version | Previous Version | Text Only | Print | Product List | Glossary On
Versions: 1 2 3 4 5 6 7 8 9 10 11 12 13 14 15
000
FTUS45 KREV 161720
TAFCXP
TAF
KCXP 161720Z 1618/1718 VRB04KT P6SM OVC010
     FM161900 08008KT P6SM BKN012
     FM170400 VRB03KT P6SM BKN013=

USA.gov is the U.S. government's official web portal to all federal, state and local government web resources and services.